Time;durP1;ratioP1;P1;durP2;ratioP2;P2;SDS_P1;SDS_P2;PMS_P1;PMS_P2;Temp;Humidity;BMP_temperature;BMP_pressure;BME280_temperature;BME280_humidity;BME280_pressure;Samples;Min_cycle;Max_cycle;Signal;HPM_P1;HPM_P2
2022/09/08 00:00:26;;;;;;;9.93;9.43;;;;;;;14.49;100.00;100911.78;5048363;28;20022;-64
2022/09/08 00:02:53;;;;;;;9.55;9.15;;;;;;;14.51;100.00;100915.09;5051137;28;20033;-64
2022/09/08 00:05:23;;;;;;;9.60;9.20;;;;;;;14.48;100.00;100910.16;5050808;28;20017;-64
2022/09/08 00:07:49;;;;;;;9.50;9.10;;;;;;;14.50;100.00;100911.59;5051013;28;20032;-64
2022/09/08 00:10:15;;;;;;;9.55;9.15;;;;;;;14.35;100.00;100908.13;5049399;28;20036;-64
2022/09/08 00:12:41;;;;;;;9.65;9.25;;;;;;;14.44;100.00;100916.84;5049989;28;20017;-65
2022/09/08 00:15:08;;;;;;;9.38;8.98;;;;;;;14.46;100.00;100904.97;5041996;28;20430;-64
2022/09/08 00:17:34;;;;;;;9.50;9.10;;;;;;;14.45;100.00;100907.81;5043350;28;20437;-66
2022/09/08 00:19:59;;;;;;;9.60;9.20;;;;;;;14.44;100.00;100904.31;5050196;28;20071;-64
2022/09/08 00:22:24;;;;;;;9.50;9.10;;;;;;;14.45;100.00;100908.63;5054372;28;20036;-65
2022/09/08 00:24:50;;;;;;;9.75;9.35;;;;;;;14.38;100.00;100908.56;5053318;28;20029;-64
2022/09/08 00:27:15;;;;;;;9.32;8.93;;;;;;;14.44;100.00;100915.00;5054103;28;20048;-65
2022/09/08 00:29:41;;;;;;;9.52;9.13;;;;;;;14.39;100.00;100914.72;5052131;28;20032;-64
2022/09/08 00:32:06;;;;;;;9.30;8.90;;;;;;;14.41;100.00;100911.91;5052360;28;20056;-63
2022/09/08 00:34:34;;;;;;;9.30;8.90;;;;;;;14.31;100.00;100910.34;5054164;28;20396;-64
2022/09/08 00:36:59;;;;;;;9.45;9.05;;;;;;;14.34;100.00;100906.50;5052862;28;20090;-65
2022/09/08 00:39:25;;;;;;;9.00;8.60;;;;;;;14.22;100.00;100916.00;5052996;28;20480;-65
2022/09/08 00:41:50;;;;;;;9.43;9.02;;;;;;;14.23;100.00;100910.47;5053904;28;20503;-64
2022/09/08 00:44:49;;;;;;;9.35;8.95;;;;;;;14.03;100.00;100915.59;5053844;28;20049;-65
2022/09/08 00:47:25;;;;;;;9.50;9.10;;;;;;;13.99;100.00;100916.97;5052886;28;20169;-64
2022/09/08 00:50:02;;;;;;;9.68;9.27;;;;;;;13.94;100.00;100919.38;5052278;28;20065;-65
2022/09/08 00:52:33;;;;;;;9.40;9.00;;;;;;;13.95;100.00;100913.03;5042444;28;20451;-65
2022/09/08 00:55:00;;;;;;;9.63;9.23;;;;;;;13.83;100.00;100920.69;5052264;28;20393;-65
2022/09/08 00:57:25;;;;;;;9.30;8.90;;;;;;;13.86;100.00;100924.00;5053821;28;20020;-64
2022/09/08 00:59:52;;;;;;;9.30;8.90;;;;;;;13.59;100.00;100918.34;5053924;28;20419;-64
2022/09/08 01:02:22;;;;;;;9.65;9.25;;;;;;;13.70;100.00;100925.03;5053618;28;20048;-65
2022/09/08 01:04:49;;;;;;;9.48;9.07;;;;;;;13.90;100.00;100928.78;5052414;28;20021;-65
2022/09/08 01:13:22;;;;;;;9.77;9.30;;;;;;;13.92;100.00;100912.59;5045962;28;20044;-64
2022/09/08 01:15:48;;;;;;;9.75;9.30;;;;;;;13.83;100.00;100914.53;5051946;28;20032;-64
2022/09/08 01:18:14;;;;;;;9.10;8.70;;;;;;;13.87;100.00;100910.47;5053428;28;20058;-64
2022/09/08 01:21:03;;;;;;;9.43;9.02;;;;;;;13.85;100.00;100917.84;5050873;28;20021;-65
2022/09/08 01:24:01;;;;;;;9.60;9.20;;;;;;;13.81;100.00;100913.91;5049469;28;20021;-64
2022/09/08 01:26:46;;;;;;;9.57;9.18;;;;;;;13.82;100.00;100912.88;5032923;28;20117;-65
2022/09/08 01:29:15;;;;;;;9.43;9.02;;;;;;;13.76;100.00;100914.44;5053139;28;20029;-65
2022/09/08 01:31:43;;;;;;;9.30;8.90;;;;;;;13.80;100.00;100910.38;5052712;28;20028;-64
2022/09/08 01:34:08;;;;;;;9.90;9.40;;;;;;;13.72;100.00;100913.16;5052770;28;20078;-66
2022/09/08 01:36:34;;;;;;;9.43;9.02;;;;;;;13.67;100.00;100915.56;5051703;28;20025;-65
2022/09/08 01:39:00;;;;;;;9.50;9.10;;;;;;;13.63;100.00;100924.09;5051179;28;20428;-65
2022/09/08 01:41:26;;;;;;;9.35;8.95;;;;;;;13.63;100.00;100908.13;5032419;28;20484;-65
2022/09/08 01:43:51;;;;;;;9.60;9.20;;;;;;;13.66;100.00;100913.06;5051408;28;20084;-64
2022/09/08 01:46:17;;;;;;;9.50;9.10;;;;;;;13.65;100.00;100908.75;5052815;28;20045;-64
2022/09/08 01:48:42;;;;;;;9.40;9.00;;;;;;;13.65;100.00;100906.09;5052700;28;20539;-65
2022/09/08 01:51:08;;;;;;;9.43;9.02;;;;;;;13.63;100.00;100900.94;5051498;28;20120;-65
2022/09/08 01:53:34;;;;;;;9.45;9.05;;;;;;;13.59;100.00;100904.16;5051034;28;20025;-64
2022/09/08 01:56:01;;;;;;;9.50;9.10;;;;;;;13.44;100.00;100907.69;5046309;28;20032;-65
2022/09/08 01:58:27;;;;;;;9.30;8.90;;;;;;;13.38;100.00;100904.91;5040411;28;20061;-64
2022/09/08 02:00:53;;;;;;;9.50;9.10;;;;;;;13.37;100.00;100893.44;5050500;28;20052;-65
2022/09/08 02:03:19;;;;;;;9.60;9.20;;;;;;;13.36;100.00;100898.91;5052517;28;20036;-64
2022/09/08 02:05:45;;;;;;;10.18;9.68;;;;;;;13.36;100.00;100899.75;5049650;28;20025;-64
2022/09/08 02:08:11;;;;;;;9.52;9.13;;;;;;;13.34;100.00;100893.78;5041712;28;20412;-64
2022/09/08 02:10:37;;;;;;;9.50;9.10;;;;;;;13.36;100.00;100896.25;5052086;28;20485;-64
2022/09/08 02:13:03;;;;;;;9.23;8.82;;;;;;;13.35;100.00;100900.75;5045417;28;20032;-65
2022/09/08 02:15:30;;;;;;;9.40;9.00;;;;;;;13.31;100.00;100894.16;5047384;28;20025;-65
2022/09/08 02:17:57;;;;;;;9.40;9.00;;;;;;;13.24;100.00;100887.91;5052078;28;20021;-64
2022/09/08 02:20:23;;;;;;;9.35;8.95;;;;;;;13.32;100.00;100889.66;5045528;28;20032;-65
2022/09/08 02:22:48;;;;;;;9.40;9.00;;;;;;;13.26;100.00;100889.38;5050710;28;20033;-65
2022/09/08 02:25:14;;;;;;;9.93;9.45;;;;;;;13.21;100.00;100890.94;5051494;28;20025;-65
2022/09/08 02:27:39;;;;;;;9.43;9.02;;;;;;;13.14;100.00;100884.63;5050558;28;20540;-65
2022/09/08 02:30:07;;;;;;;10.35;9.85;;;;;;;13.11;100.00;100883.19;5049396;28;20041;-64
2022/09/08 02:32:34;;;;;;;9.50;9.10;;;;;;;13.05;100.00;100883.06;5052125;28;20119;-64
2022/09/08 02:35:00;;;;;;;10.77;10.27;;;;;;;13.03;100.00;100879.78;5050431;28;20017;-65
2022/09/08 02:37:25;;;;;;;9.68;9.27;;;;;;;12.97;100.00;100886.66;5051514;28;20158;-65
2022/09/08 02:39:50;;;;;;;9.73;9.30;;;;;;;13.04;100.00;100887.56;5044734;28;20480;-64
2022/09/08 02:42:17;;;;;;;9.23;8.82;;;;;;;12.96;100.00;100883.16;5046526;28;20099;-65
2022/09/08 02:44:42;;;;;;;9.60;9.20;;;;;;;12.82;100.00;100880.47;5046458;28;20484;-66
2022/09/08 02:47:08;;;;;;;9.40;9.00;;;;;;;12.96;100.00;100885.00;5035159;28;20044;-64
2022/09/08 02:49:34;;;;;;;9.75;9.30;;;;;;;12.83;100.00;100876.78;5049350;28;20412;-64
2022/09/08 02:51:59;;;;;;;9.23;8.82;;;;;;;12.58;100.00;100870.88;5045082;28;20025;-64
2022/09/08 02:54:25;;;;;;;10.00;9.50;;;;;;;12.49;100.00;100871.97;5051591;28;20116;-65
2022/09/08 02:56:51;;;;;;;9.98;9.48;;;;;;;12.52;100.00;100877.72;5051257;28;20059;-65
2022/09/08 02:59:16;;;;;;;9.68;9.27;;;;;;;12.66;100.00;100878.78;5050556;28;20104;-65
2022/09/08 03:01:46;;;;;;;9.70;9.30;;;;;;;12.50;100.00;100881.59;5044953;28;20052;-64
2022/09/08 03:04:13;;;;;;;9.23;8.82;;;;;;;12.32;100.00;100876.56;5043797;28;20033;-65
2022/09/08 03:06:39;;;;;;;9.90;9.40;;;;;;;12.24;100.00;100884.59;5051500;28;20025;-65
2022/09/08 03:09:06;;;;;;;9.70;9.30;;;;;;;12.34;100.00;100886.03;5051332;28;20096;-64
2022/09/08 03:11:32;;;;;;;9.40;9.00;;;;;;;12.66;100.00;100892.09;5051367;28;20047;-64
2022/09/08 03:13:59;;;;;;;9.20;8.80;;;;;;;12.68;100.00;100888.25;5049866;28;20465;-65
2022/09/08 03:16:26;;;;;;;9.68;9.27;;;;;;;12.70;100.00;100898.69;5045685;28;20048;-64
2022/09/08 03:18:53;;;;;;;9.23;8.82;;;;;;;12.81;100.00;100892.97;5049633;28;20021;-64
2022/09/08 03:21:18;;;;;;;9.75;9.32;;;;;;;12.87;100.00;100896.75;5048978;28;20040;-64
2022/09/08 03:23:44;;;;;;;9.57;9.18;;;;;;;12.89;100.00;100892.88;5051835;28;20028;-64
2022/09/08 03:26:18;;;;;;;10.10;9.60;;;;;;;12.86;100.00;100881.78;5051186;28;20032;-65
2022/09/08 03:28:44;;;;;;;9.90;9.40;;;;;;;12.91;100.00;100887.38;5040488;28;20109;-65
2022/09/08 03:31:14;;;;;;;9.73;9.30;;;;;;;12.93;100.00;100894.19;5048430;28;20477;-64
2022/09/08 03:33:41;;;;;;;9.82;9.32;;;;;;;12.93;100.00;100891.53;5051115;28;20017;-65
2022/09/08 03:36:08;;;;;;;10.07;9.57;;;;;;;12.76;100.00;100894.50;5037369;28;20032;-64
2022/09/08 03:38:34;;;;;;;9.60;9.20;;;;;;;12.85;100.00;100890.75;5050216;28;20455;-65
2022/09/08 03:41:01;;;;;;;9.10;8.70;;;;;;;12.87;100.00;100894.09;5043427;28;20435;-65
2022/09/08 03:43:27;;;;;;;10.13;9.63;;;;;;;12.82;100.00;100889.28;5050728;28;20087;-65
2022/09/08 03:45:52;;;;;;;10.00;9.50;;;;;;;12.93;100.00;100885.38;5043972;28;20061;-65
2022/09/08 03:48:18;;;;;;;9.27;8.88;;;;;;;12.96;100.00;100879.66;5043759;28;20517;-64
2022/09/08 03:50:43;;;;;;;9.45;9.05;;;;;;;13.03;100.00;100877.13;5043598;28;20075;-63
2022/09/08 03:53:10;;;;;;;9.93;9.43;;;;;;;13.11;100.00;100883.19;5039208;28;20032;-62
2022/09/08 03:55:40;;;;;;;9.60;9.20;;;;;;;13.64;100.00;100877.78;5053893;28;20075;-62
2022/09/08 03:58:05;;;;;;;9.25;8.85;;;;;;;14.08;100.00;100873.16;5052744;28;20025;-62
2022/09/08 04:00:31;;;;;;;9.40;9.00;;;;;;;14.47;100.00;100874.63;5043471;28;20509;-61
2022/09/08 04:02:56;;;;;;;9.40;9.00;;;;;;;14.78;100.00;100865.44;5053535;28;20439;-66
2022/09/08 04:05:22;;;;;;;10.30;9.80;;;;;;;14.95;100.00;100869.44;5052064;28;20380;-65
2022/09/08 04:07:48;;;;;;;9.40;9.00;;;;;;;15.33;100.00;100871.72;5035384;28;20255;-65
2022/09/08 04:10:15;;;;;;;9.23;8.82;;;;;;;15.52;100.00;100883.56;5042481;28;20099;-66
2022/09/08 04:12:41;;;;;;;10.13;9.63;;;;;;;15.87;100.00;100890.53;5045938;28;20029;-65
2022/09/08 04:15:09;;;;;;;10.70;10.20;;;;;;;16.39;100.00;100889.03;5054582;28;20027;-65
2022/09/08 04:17:35;;;;;;;9.30;8.90;;;;;;;16.93;100.00;100892.56;5055128;28;20017;-66
2022/09/08 04:20:03;;;;;;;10.38;9.88;;;;;;;17.55;100.00;100896.56;5054368;28;20550;-66
2022/09/08 04:22:28;;;;;;;9.48;9.07;;;;;;;18.53;100.00;100886.38;5054382;28;20036;-66
2022/09/08 04:24:54;;;;;;;9.80;9.40;;;;;;;20.73;100.00;100888.19;5054094;28;20373;-65
2022/09/08 04:27:21;;;;;;;9.70;9.30;;;;;;;21.56;100.00;100893.31;5052804;28;20044;-68
2022/09/08 04:29:47;;;;;;;10.20;9.80;;;;;;;22.57;100.00;100894.44;5050087;28;20116;-65
2022/09/08 04:32:12;;;;;;;9.90;9.50;;;;;;;23.17;100.00;100901.88;5051909;28;20476;-65
2022/09/08 04:34:38;;;;;;;10.40;9.90;;;;;;;24.37;100.00;100895.75;5067858;28;20025;-64
2022/09/08 04:37:04;;;;;;;9.73;9.32;;;;;;;24.09;100.00;100904.94;5049738;28;20029;-63
2022/09/08 04:39:31;;;;;;;10.00;9.60;;;;;;;24.72;98.85;100906.09;5054327;28;20424;-64
2022/09/08 04:41:56;;;;;;;10.05;9.65;;;;;;;25.97;92.04;100909.00;5047424;28;20028;-63
2022/09/08 04:44:22;;;;;;;10.00;9.60;;;;;;;26.36;85.47;100913.97;5047426;28;20068;-63
2022/09/08 04:46:47;;;;;;;10.02;9.63;;;;;;;26.43;87.67;100911.84;5053850;28;20459;-63
2022/09/08 04:49:13;;;;;;;10.20;9.80;;;;;;;27.64;79.61;100920.94;5053715;28;20051;-63
2022/09/08 04:51:39;;;;;;;10.00;9.60;;;;;;;27.95;74.04;100923.56;5053612;28;20170;-63
2022/09/08 04:54:05;;;;;;;10.20;9.80;;;;;;;28.37;70.09;100922.25;5039371;28;20030;-63
2022/09/08 04:56:31;;;;;;;9.90;9.50;;;;;;;27.34;75.18;100916.41;5053490;28;20027;-64
2022/09/08 04:58:59;;;;;;;10.15;9.75;;;;;;;28.93;68.18;100914.41;5053808;28;20104;-64
2022/09/08 05:01:27;;;;;;;9.80;9.40;;;;;;;29.04;66.35;100926.88;5046606;28;20488;-63
2022/09/08 05:03:56;;;;;;;10.05;9.65;;;;;;;29.78;63.00;100921.16;5040961;28;20056;-63
2022/09/08 05:06:22;;;;;;;10.60;10.10;;;;;;;28.97;71.74;100914.66;5041522;28;20031;-63
2022/09/08 05:08:50;;;;;;;9.50;9.10;;;;;;;24.91;87.20;100911.97;5042338;28;20029;-63
2022/09/08 05:11:17;;;;;;;9.93;9.52;;;;;;;28.41;75.78;100921.38;5052986;28;20155;-63
2022/09/08 05:13:43;;;;;;;9.90;9.50;;;;;;;28.68;70.14;100928.28;5053219;28;20052;-64
2022/09/08 05:16:11;;;;;;;10.05;9.65;;;;;;;30.46;62.53;100929.75;5051925;28;20021;-63
2022/09/08 05:18:37;;;;;;;10.27;9.85;;;;;;;30.01;59.40;100931.22;5049497;28;20413;-63
2022/09/08 05:21:03;;;;;;;9.95;9.55;;;;;;;31.87;52.05;100919.22;5043415;28;20027;-63
2022/09/08 05:23:29;;;;;;;10.13;9.73;;;;;;;31.33;52.64;100920.88;5050084;28;20103;-64
2022/09/08 05:26:04;;;;;;;9.68;9.27;;;;;;;32.80;48.81;100926.94;5047091;28;20116;-64
2022/09/08 05:28:31;;;;;;;10.00;9.60;;;;;;;32.32;47.83;100924.03;5044299;28;20025;-63
2022/09/08 05:30:59;;;;;;;9.80;9.40;;;;;;;32.31;49.48;100925.09;5045670;28;20021;-63
2022/09/08 05:33:24;;;;;;;10.18;9.77;;;;;;;30.92;53.07;100923.56;5044250;28;20043;-63
2022/09/08 05:35:50;;;;;;;10.20;9.80;;;;;;;31.21;51.16;100930.69;5051725;28;20539;-62
2022/09/08 05:38:16;;;;;;;10.10;9.70;;;;;;;30.47;53.96;100927.81;5052801;28;20025;-63
2022/09/08 05:40:42;;;;;;;9.90;9.50;;;;;;;31.90;52.17;100920.56;5048379;28;20017;-62
2022/09/08 05:43:08;;;;;;;10.10;9.70;;;;;;;32.55;48.46;100925.66;5052499;28;20067;-63
2022/09/08 05:45:34;;;;;;;10.38;9.90;;;;;;;31.33;50.82;100923.63;5037247;28;20029;-63
2022/09/08 05:48:00;;;;;;;10.45;9.95;;;;;;;31.75;50.35;100924.41;5031014;28;20036;-63
2022/09/08 05:50:26;;;;;;;10.20;9.80;;;;;;;31.29;52.59;100921.81;5044532;28;20031;-63
2022/09/08 05:52:52;;;;;;;10.20;9.80;;;;;;;32.31;51.07;100917.66;5051811;28;20365;-63
2022/09/08 05:55:18;;;;;;;10.05;9.65;;;;;;;31.39;51.28;100913.38;5052229;28;20029;-63
2022/09/08 05:57:44;;;;;;;10.30;9.88;;;;;;;32.15;50.04;100924.66;5051807;28;20039;-64
2022/09/08 06:00:10;;;;;;;10.23;9.82;;;;;;;32.26;50.47;100919.75;5052058;28;20034;-63
2022/09/08 06:02:36;;;;;;;10.15;9.75;;;;;;;32.55;50.52;100922.91;5042838;28;20087;-63
2022/09/08 06:05:01;;;;;;;10.10;9.70;;;;;;;31.84;52.12;100925.34;5049633;28;20032;-64
2022/09/08 06:07:27;;;;;;;9.85;9.45;;;;;;;32.65;49.52;100919.09;5052034;28;20394;-63
2022/09/08 06:09:53;;;;;;;10.00;9.60;;;;;;;32.01;50.58;100915.63;5050535;28;20029;-64
2022/09/08 06:12:18;;;;;;;9.95;9.55;;;;;;;32.33;49.70;100917.41;5044606;28;20035;-65
2022/09/08 06:14:44;;;;;;;9.80;9.40;;;;;;;34.62;44.64;100919.16;5054062;28;20029;-67
2022/09/08 06:17:11;;;;;;;10.10;9.70;;;;;;;34.94;43.50;100926.06;5054227;28;20021;-67
2022/09/08 06:19:37;;;;;;;10.07;9.68;;;;;;;34.87;43.54;100928.50;5052924;28;20035;-64
2022/09/08 06:22:02;;;;;;;10.20;9.80;;;;;;;34.87;42.34;100928.50;5035173;28;20116;-64
2022/09/08 06:24:28;;;;;;;9.95;9.55;;;;;;;34.76;43.63;100928.06;5050566;28;20063;-64
2022/09/08 06:27:01;;;;;;;10.00;9.60;;;;;;;34.11;43.83;100920.78;5050651;28;20037;-64
2022/09/08 06:29:27;;;;;;;10.15;9.75;;;;;;;34.21;43.51;100911.41;5051329;28;20496;-64
2022/09/08 06:32:01;;;;;;;10.27;9.88;;;;;;;33.29;46.19;100907.78;5050862;28;20036;-64
2022/09/08 06:34:31;;;;;;;10.07;9.68;;;;;;;33.51;46.43;100904.97;5051672;28;20033;-64
2022/09/08 06:37:03;;;;;;;10.10;9.70;;;;;;;31.87;48.93;100901.94;5047515;28;20048;-64
2022/09/08 06:40:00;;;;;;;9.93;9.52;;;;;;;32.61;49.67;100909.81;5051467;28;20028;-63
2022/09/08 06:42:54;;;;;;;9.85;9.45;;;;;;;31.58;54.25;100913.25;5051087;28;20057;-64
2022/09/08 06:45:27;;;;;;;10.23;9.82;;;;;;;33.36;49.81;100914.47;5049703;28;20479;-64
2022/09/08 06:48:12;;;;;;;9.95;9.55;;;;;;;33.39;48.39;100922.09;5051818;28;20063;-64
2022/09/08 06:51:01;;;;;;;10.55;10.05;;;;;;;33.63;49.37;100916.16;5051767;28;20028;-64
2022/09/08 06:53:34;;;;;;;10.07;9.68;;;;;;;35.98;41.50;100920.06;5040178;28;20041;-64
2022/09/08 06:56:24;;;;;;;10.18;9.77;;;;;;;36.20;40.78;100930.75;5051290;28;20029;-64
2022/09/08 06:58:55;;;;;;;10.40;9.95;;;;;;;36.13;39.72;100926.91;5039303;28;20163;-65
2022/09/08 07:01:40;;;;;;;10.13;9.73;;;;;;;35.54;40.64;100936.06;5041981;28;20056;-64
2022/09/08 07:04:33;;;;;;;10.18;9.77;;;;;;;33.73;44.28;100935.13;5046566;28;20025;-64
2022/09/08 07:07:09;;;;;;;10.20;9.80;;;;;;;35.47;41.12;100927.50;5051549;28;20064;-64
2022/09/08 07:09:51;;;;;;;9.95;9.55;;;;;;;36.22;39.30;100922.97;5051229;28;20511;-64
2022/09/08 07:12:25;;;;;;;10.25;9.85;;;;;;;35.26;40.46;100934.91;5051532;28;20039;-65
2022/09/08 07:15:20;;;;;;;10.00;9.60;;;;;;;35.62;40.69;100926.94;5051476;28;20078;-64
2022/09/08 07:18:05;;;;;;;9.98;9.57;;;;;;;35.15;42.28;100934.44;5049973;28;20028;-65
2022/09/08 07:20:31;;;;;;;10.50;10.00;;;;;;;36.75;38.72;100929.63;5050876;28;20021;-64
2022/09/08 07:23:10;;;;;;;10.13;9.73;;;;;;;35.57;39.50;100929.91;5051568;28;20025;-64
2022/09/08 07:25:41;;;;;;;10.43;9.95;;;;;;;35.94;39.49;100933.72;5051085;28;20499;-64
2022/09/08 07:28:20;;;;;;;10.10;9.70;;;;;;;34.36;43.53;100938.44;5049201;28;20451;-63
2022/09/08 07:31:09;;;;;;;10.10;9.70;;;;;;;33.66;46.75;100937.53;5055214;28;20111;-64
2022/09/08 07:33:40;;;;;;;10.20;9.80;;;;;;;35.37;40.38;100941.66;5047599;28;20377;-64
2022/09/08 07:36:39;;;;;;;10.00;9.60;;;;;;;33.91;43.66;100936.00;5054044;28;20029;-64
2022/09/08 07:39:40;;;;;;;9.90;9.50;;;;;;;33.24;46.76;100942.53;5055067;28;20024;-65
2022/09/08 07:42:13;;;;;;;10.50;10.00;;;;;;;35.01;41.62;100936.59;5042703;28;20051;-65
2022/09/08 07:44:39;;;;;;;10.13;9.73;;;;;;;35.27;41.78;100944.78;5054773;28;20033;-63
2022/09/08 07:47:42;;;;;;;10.00;9.60;;;;;;;34.42;41.95;100936.38;5055212;28;20395;-64
2022/09/08 07:50:17;;;;;;;9.90;9.50;;;;;;;36.03;38.58;100928.16;5055027;28;20017;-63
2022/09/08 07:52:57;;;;;;;9.98;9.57;;;;;;;35.07;39.61;100940.81;5054533;28;20077;-64
2022/09/08 07:55:31;;;;;;;10.10;9.70;;;;;;;36.16;38.15;100934.53;5053540;28;20485;-64
2022/09/08 07:58:11;;;;;;;10.00;9.60;;;;;;;34.79;40.46;100929.34;5055168;28;20033;-63
2022/09/08 08:00:43;;;;;;;10.20;9.80;;;;;;;36.34;38.27;100933.22;5061925;28;20016;-64
2022/09/08 08:03:21;;;;;;;9.82;9.43;;;;;;;36.32;37.33;100930.00;5059379;28;20040;-63
2022/09/08 08:06:02;;;;;;;10.02;9.63;;;;;;;37.33;35.69;100935.19;5054939;28;20419;-64
2022/09/08 08:08:27;;;;;;;9.98;9.57;;;;;;;37.48;34.83;100934.47;5053767;28;20025;-64
2022/09/08 08:11:11;;;;;;;9.88;9.48;;;;;;;36.51;36.79;100943.38;5053771;28;20488;-64
2022/09/08 08:14:09;;;;;;;9.77;9.38;;;;;;;35.08;39.95;100942.41;5055454;28;20362;-63
2022/09/08 08:16:47;;;;;;;9.68;9.27;;;;;;;35.34;39.72;100943.13;5051363;28;20068;-63
2022/09/08 08:19:54;;;;;;;10.00;9.60;;;;;;;36.46;37.41;100927.81;5054513;28;20389;-63
2022/09/08 08:22:22;;;;;;;9.85;9.45;;;;;;;34.54;39.37;100925.50;5050959;28;20029;-63
2022/09/08 08:25:28;;;;;;;9.82;9.43;;;;;;;34.44;39.81;100928.56;5054330;28;20511;-65
2022/09/08 08:28:13;;;;;;;9.90;9.50;;;;;;;33.43;42.44;100920.34;5047471;28;20040;-63
2022/09/08 08:30:48;;;;;;;10.35;9.85;;;;;;;31.76;47.57;100917.00;5049115;28;20343;-64
2022/09/08 08:33:27;;;;;;;10.15;9.75;;;;;;;33.18;43.82;100910.81;5040711;28;20523;-64
2022/09/08 08:36:10;;;;;;;10.00;9.60;;;;;;;32.37;45.93;100912.91;5053109;28;20056;-64
2022/09/08 08:38:42;;;;;;;10.73;10.23;;;;;;;32.24;47.17;100916.47;5043048;28;20101;-64
2022/09/08 08:41:41;;;;;;;10.23;9.80;;;;;;;30.86;52.47;100916.53;5052559;28;20071;-63
2022/09/08 08:44:24;;;;;;;10.15;9.75;;;;;;;31.42;51.11;100917.41;5052412;28;20500;-64
2022/09/08 08:47:15;;;;;;;10.40;9.90;;;;;;;30.34;54.92;100913.00;5053985;28;20116;-63
2022/09/08 08:50:02;;;;;;;10.57;10.07;;;;;;;31.75;50.77;100907.16;5053636;28;20489;-64
2022/09/08 08:52:36;;;;;;;10.40;9.90;;;;;;;31.73;51.58;100904.72;5053786;28;20028;-64
2022/09/08 08:55:33;;;;;;;10.98;10.48;;;;;;;32.81;47.19;100903.00;5053542;28;20017;-63
2022/09/08 08:58:23;;;;;;;10.90;10.40;;;;;;;32.07;48.68;100900.69;5053448;28;20100;-65
2022/09/08 09:01:04;;;;;;;10.77;10.27;;;;;;;32.12;49.53;100895.88;5042662;28;20048;-64
2022/09/08 09:03:39;;;;;;;10.07;9.68;;;;;;;31.88;51.79;100887.94;5053811;28;20028;-64
2022/09/08 09:06:36;;;;;;;10.05;9.65;;;;;;;32.47;49.82;100885.22;5053436;28;20029;-64
2022/09/08 09:09:27;;;;;;;10.25;9.82;;;;;;;31.97;49.20;100882.53;5053332;28;20035;-64
2022/09/08 09:12:42;;;;;;;10.60;10.10;;;;;;;31.90;50.48;100876.66;5041552;28;20043;-63
2022/09/08 09:15:26;;;;;;;10.57;10.07;;;;;;;32.85;47.33;100868.28;5028690;28;20499;-63
2022/09/08 09:17:52;;;;;;;10.02;9.63;;;;;;;31.67;51.04;100874.97;5052260;28;20443;-64
2022/09/08 09:20:29;;;;;;;10.00;9.60;;;;;;;31.89;50.88;100869.53;5053090;28;20029;-63
2022/09/08 09:23:34;;;;;;;10.15;9.75;;;;;;;30.66;54.35;100871.13;5053164;28;20025;-63
2022/09/08 09:26:06;;;;;;;10.60;10.10;;;;;;;30.37;58.66;100868.59;5042884;28;20396;-63
2022/09/08 09:28:57;;;;;;;10.95;10.45;;;;;;;31.15;54.78;100861.47;5051575;28;20036;-64
2022/09/08 09:32:04;;;;;;;10.18;9.77;;;;;;;31.77;52.17;100853.63;5046400;28;20574;-64
2022/09/08 09:35:08;;;;;;;10.40;9.90;;;;;;;29.95;60.51;100858.53;5052145;28;20024;-63
2022/09/08 09:37:45;;;;;;;10.47;9.97;;;;;;;29.96;61.85;100866.44;5052022;28;20036;-64
2022/09/08 09:40:24;;;;;;;10.10;9.70;;;;;;;29.83;63.09;100869.94;5052799;28;20017;-65
2022/09/08 09:43:18;;;;;;;10.25;9.80;;;;;;;30.94;56.50;100869.25;5052857;28;20049;-63
2022/09/08 09:46:21;;;;;;;10.25;9.80;;;;;;;30.36;59.09;100864.22;5052743;28;20510;-64
2022/09/08 09:49:25;;;;;;;9.73;9.32;;;;;;;29.89;62.42;100871.50;5041750;28;20058;-64
2022/09/08 09:52:12;;;;;;;10.40;9.90;;;;;;;29.09;65.42;100850.34;5052075;28;20032;-64
2022/09/08 09:54:57;;;;;;;9.93;9.52;;;;;;;29.59;64.22;100848.09;5052806;28;20438;-65
2022/09/08 09:58:03;;;;;;;10.50;10.00;;;;;;;28.53;70.52;100844.59;5052639;28;20029;-63
2022/09/08 10:01:13;;;;;;;10.55;10.05;;;;;;;28.92;69.14;100840.97;5050839;28;20102;-64
2022/09/08 10:04:03;;;;;;;10.43;9.93;;;;;;;28.39;71.98;100844.44;5052289;28;20115;-63
2022/09/08 10:06:56;;;;;;;10.82;10.32;;;;;;;28.32;72.78;100836.59;5052388;28;20036;-64
2022/09/08 10:09:56;;;;;;;10.07;9.68;;;;;;;28.19;73.44;100834.47;5051658;28;20028;-63
2022/09/08 10:12:57;;;;;;;10.18;9.77;;;;;;;28.40;73.11;100837.88;5052428;28;20068;-64
2022/09/08 10:15:46;;;;;;;10.77;10.27;;;;;;;28.24;71.81;100831.72;5010495;28;20444;-63
2022/09/08 10:18:41;;;;;;;10.38;9.88;;;;;;;28.41;71.74;100833.22;5049893;28;20092;-64
2022/09/08 10:21:25;;;;;;;;;;;;;;;26.09;88.45;100835.38;5045594;28;20488;-64
2022/09/08 10:24:23;;;;;;;10.07;9.68;;;;;;;27.28;83.00;100833.06;5040022;28;19909;-64
2022/09/08 10:27:25;;;;;;;9.88;9.48;;;;;;;27.24;82.76;100823.81;5049197;28;20492;-63
2022/09/08 10:30:12;;;;;;;10.00;9.60;;;;;;;27.80;80.75;100824.38;5051927;28;20029;-65
2022/09/08 10:33:04;;;;;;;12.70;12.10;;;;;;;27.93;79.96;100827.59;5051813;28;20039;-64
2022/09/08 10:35:37;;;;;;;10.35;9.85;;;;;;;27.56;83.45;100819.88;5042662;28;20455;-63
2022/09/08 10:38:20;;;;;;;10.10;9.70;;;;;;;27.84;80.67;100821.91;5045343;28;20036;-64
2022/09/08 10:40:54;;;;;;;9.95;9.55;;;;;;;27.48;80.82;100821.28;5051589;28;20435;-64
2022/09/08 10:43:47;;;;;;;10.07;9.68;;;;;;;27.92;79.55;100824.03;5050491;28;20079;-64
2022/09/08 10:46:27;;;;;;;10.18;9.70;;;;;;;27.85;79.76;100817.28;5051708;28;20392;-65
2022/09/08 10:49:05;;;;;;;10.48;9.98;;;;;;;27.79;78.48;100820.03;5051664;28;20055;-63
2022/09/08 10:51:36;;;;;;;9.88;9.48;;;;;;;27.70;77.07;100815.47;5051523;28;20052;-64
2022/09/08 10:54:04;;;;;;;10.07;9.68;;;;;;;27.93;75.71;100809.31;5051880;28;20024;-64
2022/09/08 10:56:30;;;;;;;9.85;9.45;;;;;;;27.74;77.51;100814.59;5051419;28;20530;-64
2022/09/08 10:59:29;;;;;;;11.10;10.60;;;;;;;28.21;79.05;100812.38;5048793;28;20029;-64
2022/09/08 11:02:10;;;;;;;9.98;9.57;;;;;;;27.84;77.14;100813.75;5044995;28;20142;-64
2022/09/08 11:04:45;;;;;;;9.88;9.48;;;;;;;27.67;74.91;100811.38;5050935;28;20036;-65
2022/09/08 11:07:39;;;;;;;10.73;10.23;;;;;;;27.98;77.41;100816.63;5051236;28;20029;-64
2022/09/08 11:10:22;;;;;;;9.88;9.48;;;;;;;28.51;73.28;100803.94;5049856;28;20059;-62
2022/09/08 11:12:50;;;;;;;10.20;9.80;;;;;;;28.11;72.14;100805.06;5051302;28;20429;-64
2022/09/08 11:15:21;;;;;;;10.15;9.73;;;;;;;27.72;75.19;100803.16;5051423;28;20036;-64
2022/09/08 11:17:50;;;;;;;11.00;10.50;;;;;;;28.38;71.96;100788.25;5050041;28;20052;-64
2022/09/08 11:20:50;;;;;;;10.35;9.85;;;;;;;28.41;69.91;100792.28;5051428;28;20067;-64
2022/09/08 11:23:46;;;;;;;9.90;9.50;;;;;;;27.71;76.38;100766.13;5051299;28;20040;-64
2022/09/08 11:26:39;;;;;;;9.73;9.32;;;;;;;28.31;71.14;100785.84;5041518;28;20033;-63
2022/09/08 11:29:12;;;;;;;9.63;9.23;;;;;;;27.67;74.91;100781.38;5051054;28;20469;-64
2022/09/08 11:31:52;;;;;;;10.10;9.68;;;;;;;27.91;75.59;100780.69;5051115;28;20100;-64
2022/09/08 11:34:38;;;;;;;9.93;9.52;;;;;;;27.74;73.60;100787.34;5044446;28;20032;-63
2022/09/08 11:37:19;;;;;;;10.02;9.63;;;;;;;27.90;73.57;100779.06;5045859;28;20017;-64
2022/09/08 11:40:06;;;;;;;10.00;9.60;;;;;;;28.26;71.36;100779.56;5050865;28;20036;-64
2022/09/08 11:42:34;;;;;;;10.13;9.73;;;;;;;28.31;69.63;100768.66;5050737;28;20508;-64
2022/09/08 11:45:42;;;;;;;9.88;9.48;;;;;;;28.26;66.31;100768.66;5051116;28;20095;-64
2022/09/08 11:48:55;;;;;;;9.65;9.25;;;;;;;27.98;68.16;100762.91;5059997;28;20032;-63
2022/09/08 11:51:27;;;;;;;10.10;9.70;;;;;;;28.09;69.28;100763.63;5003206;28;20034;-64
2022/09/08 11:54:12;;;;;;;9.95;9.55;;;;;;;28.06;69.28;100759.56;5009219;28;20418;-65
2022/09/08 11:56:44;;;;;;;10.10;9.70;;;;;;;28.32;68.47;100760.19;5034863;28;20048;-64